UAL280 KMEM-KABQ
Flight info
| Callsign | UAL280 |
|---|---|
| Flight time | N/A |
| Altitude | 38000 |
| Route | ZUMIT5 FOXOM FSM IRW J78 TCC KIIDD COLTR4 |
| Aircraft | B752/M-SDE2E3FGHIJ3J4J7RWXY/LB1 |
Departure
| Time | N/A |
|---|---|
| Airport | Memphis International Airport (KMEM) |
Arrival
| Time | 2026-05-04 02:47 |
|---|---|
| Airport | Albuquerque International Sunport (KABQ) |
| Time | Latitude | Longitude | Altitude | Speed | Heading |
|---|---|---|---|---|---|
| 2026-05-04 02:47 | 35.04500 | -106.59164 | 5353 ft | 8 kts | 62° |
| 2026-05-04 02:47 | 35.04523 | -106.59113 | 5354 ft | 5 kts | 61° |
| 2026-05-04 02:47 | 35.04541 | -106.59071 | 5354 ft | 4 kts | 62° |
| 2026-05-04 02:47 | 35.04557 | -106.59035 | 5354 ft | 4 kts | 62° |
| 2026-05-04 02:48 | 35.04571 | -106.59000 | 5355 ft | 4 kts | 70° |
| 2026-05-04 02:48 | 35.04580 | -106.58868 | 5357 ft | 21 kts | 87° |
| 2026-05-04 02:48 | 35.04575 | -106.58697 | 5358 ft | 18 kts | 93° |
| 2026-05-04 02:48 | 35.04573 | -106.58554 | 5361 ft | 14 kts | 90° |
| 2026-05-04 02:49 | 35.04572 | -106.58446 | 5362 ft | 10 kts | 91° |
| 2026-05-04 02:49 | 35.04565 | -106.58377 | 5364 ft | 3 kts | 99° |
| 2026-05-04 02:49 | 35.04575 | -106.58361 | 5364 ft | 3 kts | 19° |
| 2026-05-04 02:49 | 35.04591 | -106.58382 | 5363 ft | 4 kts | 264° |
| 2026-05-04 02:50 | 35.04582 | -106.58466 | 5362 ft | 15 kts | 271° |
| 2026-05-04 02:50 | 35.04581 | -106.58615 | 5360 ft | 22 kts | 265° |
| 2026-05-04 02:50 | 35.04579 | -106.58831 | 5357 ft | 26 kts | 267° |
| 2026-05-04 02:50 | 35.04577 | -106.59047 | 5354 ft | 24 kts | 265° |
| 2026-05-04 02:51 | 35.04581 | -106.59250 | 5352 ft | 23 kts | 272° |
| 2026-05-04 02:51 | 35.04576 | -106.59437 | 5351 ft | 21 kts | 265° |
| 2026-05-04 02:51 | 35.04585 | -106.59608 | 5349 ft | 19 kts | 285° |
| 2026-05-04 02:51 | 35.04594 | -106.59750 | 5348 ft | 16 kts | 266° |
| 2026-05-04 02:52 | 35.04591 | -106.59877 | 5347 ft | 14 kts | 286° |
| 2026-05-04 02:52 | 35.04646 | -106.60072 | 5346 ft | 29 kts | 272° |
| 2026-05-04 02:52 | 35.04645 | -106.60352 | 5345 ft | 34 kts | 269° |
| 2026-05-04 02:52 | 35.04648 | -106.60645 | 5343 ft | 33 kts | 271° |
| 2026-05-04 02:53 | 35.04657 | -106.60919 | 5342 ft | 31 kts | 273° |
| 2026-05-04 02:53 | 35.04659 | -106.61179 | 5341 ft | 29 kts | 264° |
| 2026-05-04 02:53 | 35.04641 | -106.61414 | 5339 ft | 26 kts | 242° |
| 2026-05-04 02:53 | 35.04585 | -106.61581 | 5337 ft | 15 kts | 319° |
| 2026-05-04 02:54 | 35.04615 | -106.61549 | 5337 ft | 1 kts | 111° |
| 2026-05-04 02:54 | 35.04618 | -106.61531 | 5337 ft | 6 kts | 65° |
| 2026-05-04 02:54 | 35.04652 | -106.61497 | 5338 ft | 4 kts | 13° |
| 2026-05-04 02:54 | 35.04678 | -106.61492 | 5338 ft | 0 kts | 11° |
| 2026-05-04 02:55 | 35.04680 | -106.61491 | 5338 ft | 0 kts | 11° |
| 2026-05-04 02:55 | 35.04681 | -106.61491 | 5338 ft | 0 kts | 11° |